Time;durP1;ratioP1;P1;durP2;ratioP2;P2;SDS_P1;SDS_P2;PMS_P1;PMS_P2;Temp;Humidity;BMP_temperature;BMP_pressure;BME280_temperature;BME280_humidity;BME280_pressure;Samples;Min_cycle;Max_cycle;Signal;HPM_P1;HPM_P2
2023/10/12 00:01:57;;;;;;;13.10;4.90;;;16.40;99.90;;;;;;485872;245;28901;-74
2023/10/12 00:03:41;;;;;;;10.80;5.17;;;16.30;99.90;;;;;;485829;245;28835;-72
2023/10/12 00:05:45;;;;;;;8.53;4.53;;;16.40;99.90;;;;;;485932;245;28861;-73
2023/10/12 00:07:45;;;;;;;9.53;5.07;;;16.30;99.90;;;;;;485899;245;28744;-72
2023/10/12 00:10:39;;;;;;;6.80;4.70;;;16.30;99.90;;;;;;485876;245;28784;-72
2023/10/12 00:11:57;;;;;;;7.10;4.77;;;16.30;99.90;;;;;;482976;245;29386;-72
2023/10/12 00:13:51;;;;;;;11.00;5.00;;;16.20;99.90;;;;;;485879;245;28871;-72
2023/10/12 00:15:51;;;;;;;12.00;5.50;;;16.20;99.90;;;;;;485917;245;28758;-72
2023/10/12 00:17:52;;;;;;;6.43;4.87;;;16.30;99.90;;;;;;485928;245;28793;-72
2023/10/12 00:19:54;;;;;;;8.13;4.50;;;16.30;99.90;;;;;;485921;245;29134;-72
2023/10/12 00:22:02;;;;;;;10.67;4.63;;;16.30;99.90;;;;;;485922;240;28739;-72
2023/10/12 00:24:02;;;;;;;11.87;5.50;;;16.30;99.90;;;;;;485918;245;28861;-73
2023/10/12 00:26:06;;;;;;;10.67;4.60;;;16.20;99.90;;;;;;485909;245;28742;-72
2023/10/12 00:28:06;;;;;;;10.63;5.70;;;16.20;99.90;;;;;;485876;245;29238;-72
2023/10/12 00:30:06;;;;;;;10.20;4.83;;;16.20;99.90;;;;;;485894;245;29958;-72
2023/10/12 00:32:07;;;;;;;7.97;5.60;;;16.20;99.90;;;;;;485938;245;28878;-72
2023/10/12 00:34:12;;;;;;;8.93;5.20;;;16.20;99.90;;;;;;485930;245;28854;-73
2023/10/12 00:36:21;;;;;;;8.87;4.47;;;16.10;99.90;;;;;;485912;240;29343;-72
2023/10/12 00:38:23;;;;;;;6.50;4.80;;;16.10;99.90;;;;;;485846;245;29307;-72
2023/10/12 00:40:31;;;;;;;7.40;4.93;;;16.10;99.90;;;;;;485917;245;28843;-72
2023/10/12 00:42:34;;;;;;;7.00;5.30;;;16.10;99.90;;;;;;485852;245;28834;-72
2023/10/12 00:44:34;;;;;;;11.70;4.97;;;16.10;99.90;;;;;;485886;245;28961;-72
2023/10/12 00:46:40;;;;;;;8.47;5.10;;;16.00;99.90;;;;;;485892;245;28757;-72
2023/10/12 00:48:39;;;;;;;9.30;5.40;;;16.00;99.90;;;;;;485870;245;28834;-72
2023/10/12 00:50:36;;;;;;;9.13;4.17;;;16.10;99.90;;;;;;485874;245;28809;-72
2023/10/12 00:52:46;;;;;;;8.07;4.43;;;16.10;99.90;;;;;;485932;245;28899;-72
2023/10/12 00:56:43;;;;;;;6.10;4.20;;;16.10;99.90;;;;;;485943;245;28799;-72
2023/10/12 00:58:44;;;;;;;9.23;5.13;;;16.20;99.90;;;;;;485898;245;28775;-72
2023/10/12 01:00:45;;;;;;;7.80;4.63;;;16.10;99.90;;;;;;485871;245;28753;-72
2023/10/12 01:03:06;;;;;;;7.17;4.70;;;16.10;99.90;;;;;;485893;245;30062;-72
2023/10/12 01:04:53;;;;;;;5.73;4.23;;;16.10;99.90;;;;;;485519;245;28790;-73
2023/10/12 01:06:49;;;;;;;12.03;5.57;;;16.10;99.90;;;;;;485697;245;28857;-72
2023/10/12 01:08:50;;;;;;;7.13;4.60;;;16.00;99.90;;;;;;485897;245;28785;-72
2023/10/12 01:10:57;;;;;;;9.07;5.27;;;16.00;99.90;;;;;;485906;245;28795;-71
2023/10/12 01:12:56;;;;;;;9.93;5.03;;;16.00;99.90;;;;;;485846;245;28770;-72
2023/10/12 01:14:54;;;;;;;7.83;4.60;;;16.00;99.90;;;;;;485867;245;29021;-72
2023/10/12 01:16:58;;;;;;;8.83;4.90;;;16.00;99.90;;;;;;485914;245;28786;-72
2023/10/12 01:19:05;;;;;;;9.17;4.93;;;16.00;99.90;;;;;;485912;245;28840;-72
2023/10/12 01:20:58;;;;;;;9.87;4.80;;;16.00;99.90;;;;;;485757;245;28786;-73
2023/10/12 01:22:59;;;;;;;11.53;5.00;;;16.00;99.90;;;;;;485917;245;29354;-73
2023/10/12 01:25:10;;;;;;;10.50;5.40;;;15.90;99.90;;;;;;485968;245;29359;-72
2023/10/12 01:27:01;;;;;;;9.97;4.53;;;16.00;99.90;;;;;;485885;245;28817;-72
2023/10/12 01:29:02;;;;;;;12.00;5.60;;;15.90;99.90;;;;;;485924;245;28943;-72
2023/10/12 01:31:06;;;;;;;14.70;5.83;;;15.90;99.90;;;;;;485923;245;28781;-72
2023/10/12 01:33:06;;;;;;;9.10;5.40;;;16.00;99.90;;;;;;485927;245;28802;-73
2023/10/12 01:35:07;;;;;;;8.60;5.43;;;16.00;99.90;;;;;;485940;245;28826;-72
2023/10/12 01:37:24;;;;;;;7.13;5.10;;;15.90;99.90;;;;;;485914;245;28779;-72
2023/10/12 01:39:28;;;;;;;11.43;4.87;;;15.90;99.90;;;;;;485926;245;28827;-72
2023/10/12 01:41:26;;;;;;;9.70;5.30;;;15.90;99.90;;;;;;485895;245;28773;-73
2023/10/12 01:43:29;;;;;;;8.67;4.80;;;15.80;99.90;;;;;;485924;245;28812;-72
2023/10/12 01:45:41;;;;;;;10.63;5.50;;;15.80;99.90;;;;;;485915;245;28778;-72
2023/10/12 01:47:37;;;;;;;9.00;4.87;;;15.70;99.90;;;;;;485886;245;29342;-73
2023/10/12 01:49:37;;;;;;;7.57;4.70;;;15.70;99.90;;;;;;485753;245;29306;-72
2023/10/12 01:51:42;;;;;;;7.77;4.80;;;15.60;99.90;;;;;;485938;240;29262;-72
2023/10/12 01:53:40;;;;;;;6.10;4.33;;;15.60;99.90;;;;;;485893;245;28949;-72
2023/10/12 01:55:43;;;;;;;12.80;6.30;;;15.70;99.90;;;;;;485933;245;28781;-72
2023/10/12 01:57:47;;;;;;;10.97;5.30;;;15.60;99.90;;;;;;485905;245;28860;-73
2023/10/12 01:59:42;;;;;;;9.60;5.20;;;15.60;99.90;;;;;;485893;245;28754;-72
2023/10/12 02:01:46;;;;;;;13.73;5.33;;;15.60;99.90;;;;;;485929;240;28795;-72
2023/10/12 02:03:45;;;;;;;7.70;5.00;;;15.50;99.90;;;;;;485899;245;28754;-72
2023/10/12 02:06:13;;;;;;;11.40;5.40;;;15.50;99.90;;;;;;485929;245;28751;-72
2023/10/12 02:07:52;;;;;;;9.80;5.20;;;15.50;99.90;;;;;;484767;245;29444;-72
2023/10/12 02:09:52;;;;;;;8.13;4.80;;;15.50;99.90;;;;;;485906;245;28881;-72
2023/10/12 02:11:57;;;;;;;7.20;4.30;;;15.50;99.90;;;;;;485937;245;28819;-72
2023/10/12 02:14:01;;;;;;;9.27;4.47;;;15.40;99.90;;;;;;485864;241;28763;-73
2023/10/12 02:16:00;;;;;;;7.60;4.40;;;15.40;99.90;;;;;;485923;245;28841;-72
2023/10/12 02:18:00;;;;;;;8.13;5.47;;;15.40;99.90;;;;;;485924;245;28786;-73
2023/10/12 02:20:01;;;;;;;7.00;4.80;;;15.30;99.90;;;;;;485851;245;29565;-72
2023/10/12 02:22:03;;;;;;;10.73;5.60;;;15.40;99.90;;;;;;485953;245;29199;-72
2023/10/12 02:26:28;;;;;;;7.73;5.43;;;15.30;99.90;;;;;;485970;245;29237;-73
2023/10/12 02:28:09;;;;;;;6.83;5.23;;;15.30;99.90;;;;;;485784;245;28739;-72
2023/10/12 02:30:18;;;;;;;9.40;5.33;;;15.30;99.90;;;;;;485892;245;28818;-73
2023/10/12 02:32:22;;;;;;;10.37;5.60;;;15.30;99.90;;;;;;485888;245;28848;-72
2023/10/12 02:34:19;;;;;;;14.10;5.53;;;15.30;99.90;;;;;;485896;245;28746;-73
2023/10/12 02:36:20;;;;;;;9.63;5.33;;;15.30;99.90;;;;;;485905;245;28877;-73
2023/10/12 02:38:27;;;;;;;8.80;4.97;;;15.20;99.90;;;;;;485930;245;28741;-71
2023/10/12 02:40:26;;;;;;;6.60;4.53;;;15.20;99.90;;;;;;485850;245;28750;-72
2023/10/12 02:42:51;;;;;;;8.67;4.90;;;15.10;99.90;;;;;;485877;245;29383;-73
2023/10/12 02:44:25;;;;;;;8.47;5.00;;;15.10;99.90;;;;;;484320;245;29409;-72
2023/10/12 02:46:27;;;;;;;7.83;4.60;;;15.10;99.90;;;;;;485966;245;29361;-72
2023/10/12 02:48:29;;;;;;;9.23;5.17;;;15.10;99.90;;;;;;485873;245;29342;-72
2023/10/12 02:50:32;;;;;;;9.23;5.10;;;15.10;99.90;;;;;;485907;245;28857;-72
2023/10/12 02:52:32;;;;;;;9.97;5.17;;;15.00;99.90;;;;;;485881;245;28867;-72
2023/10/12 02:54:38;;;;;;;7.43;4.60;;;15.00;99.90;;;;;;485948;245;28739;-72
2023/10/12 02:56:35;;;;;;;9.23;5.20;;;15.00;99.90;;;;;;485841;245;28767;-72
2023/10/12 02:58:34;;;;;;;8.30;5.03;;;14.90;99.90;;;;;;485902;245;29215;-74
2023/10/12 03:00:44;;;;;;;8.30;4.90;;;14.90;99.90;;;;;;485960;245;28755;-72
2023/10/12 03:02:37;;;;;;;6.90;4.90;;;14.90;99.90;;;;;;485719;245;28738;-72
2023/10/12 03:04:39;;;;;;;5.33;4.37;;;14.90;99.90;;;;;;485887;245;29291;-72
2023/10/12 03:06:41;;;;;;;10.40;4.93;;;14.90;99.90;;;;;;485867;245;29266;-72
2023/10/12 03:09:14;;;;;;;6.07;4.53;;;14.90;99.90;;;;;;485916;245;29290;-72
2023/10/12 03:13:04;;;;;;;6.23;4.43;;;14.90;99.90;;;;;;485949;245;29254;-72
2023/10/12 03:15:11;;;;;;;4.70;4.00;;;14.80;99.90;;;;;;485932;245;29317;-72
2023/10/12 03:17:05;;;;;;;6.53;5.03;;;14.90;99.90;;;;;;485892;240;29270;-72
2023/10/12 03:21:23;;;;;;;10.97;5.30;;;14.90;99.90;;;;;;485943;245;28889;-72
2023/10/12 03:23:23;;;;;;;9.20;4.60;;;14.90;99.90;;;;;;485923;245;29250;-72
2023/10/12 03:25:43;;;;;;;6.97;5.00;;;14.90;99.90;;;;;;485916;245;29298;-72
2023/10/12 03:27:40;;;;;;;13.60;4.60;;;14.80;99.90;;;;;;485821;245;28779;-72
2023/10/12 03:29:50;;;;;;;7.83;5.10;;;14.80;99.90;;;;;;485984;245;28786;-72
2023/10/12 03:33:53;;;;;;;7.40;4.77;;;14.80;99.90;;;;;;485981;245;28808;-72
2023/10/12 03:35:57;;;;;;;6.23;4.67;;;14.80;99.90;;;;;;485898;245;28767;-72
2023/10/12 03:37:52;;;;;;;8.03;4.37;;;14.80;99.90;;;;;;485664;245;28883;-73
2023/10/12 03:44:05;;;;;;;8.30;4.83;;;14.70;99.90;;;;;;485839;245;29692;-72
2023/10/12 03:46:07;;;;;;;5.60;4.43;;;14.70;99.90;;;;;;485898;245;29256;-72
2023/10/12 03:48:04;;;;;;;10.60;5.20;;;14.70;99.90;;;;;;485845;245;29346;-72
2023/10/12 03:50:07;;;;;;;6.63;4.80;;;14.70;99.90;;;;;;485924;245;29232;-72
2023/10/12 03:52:11;;;;;;;8.10;5.20;;;14.70;99.90;;;;;;485839;240;28864;-72
2023/10/12 03:54:26;;;;;;;8.20;4.90;;;14.70;99.90;;;;;;485880;245;28909;-72
2023/10/12 03:56:23;;;;;;;8.77;5.30;;;14.70;99.90;;;;;;485864;245;29273;-74
2023/10/12 03:58:24;;;;;;;6.70;4.63;;;14.80;99.90;;;;;;485819;240;28903;-73
2023/10/12 04:00:25;;;;;;;10.47;5.73;;;14.80;99.90;;;;;;485856;245;28740;-72
2023/10/12 04:02:25;;;;;;;6.63;4.87;;;14.80;99.90;;;;;;485844;245;28800;-73
2023/10/12 04:04:36;;;;;;;7.27;5.20;;;14.80;99.90;;;;;;485829;245;28838;-73
2023/10/12 04:07:37;;;;;;;7.37;5.60;;;14.80;99.90;;;;;;485880;245;28871;-72
2023/10/12 04:08:39;;;;;;;10.43;5.60;;;14.80;99.90;;;;;;482427;240;28883;-73
2023/10/12 04:12:54;;;;;;;9.10;5.20;;;14.80;99.90;;;;;;485883;245;29373;-72
2023/10/12 04:14:52;;;;;;;6.60;5.13;;;14.80;99.90;;;;;;485885;245;29198;-72
2023/10/12 04:17:19;;;;;;;7.00;5.33;;;14.80;99.90;;;;;;485886;245;28791;-72
2023/10/12 04:19:09;;;;;;;8.27;4.87;;;14.70;99.90;;;;;;485713;245;28739;-72
2023/10/12 04:21:10;;;;;;;6.70;4.93;;;14.80;99.90;;;;;;485920;245;28846;-72
2023/10/12 04:25:46;;;;;;;6.93;4.60;;;14.70;99.90;;;;;;485914;245;28796;-71
2023/10/12 04:27:39;;;;;;;7.20;4.60;;;14.60;99.90;;;;;;485652;245;28815;-71
2023/10/12 04:29:39;;;;;;;8.70;5.57;;;14.60;99.90;;;;;;485939;245;29342;-73
2023/10/12 04:31:49;;;;;;;7.57;5.30;;;14.60;99.90;;;;;;485942;245;29219;-71
2023/10/12 04:34:04;;;;;;;4.90;4.40;;;14.60;99.90;;;;;;485688;245;29357;-72
2023/10/12 04:36:11;;;;;;;9.20;5.63;;;14.60;99.90;;;;;;485826;245;28472;-71
2023/10/12 04:38:23;;;;;;;8.07;5.43;;;14.60;99.90;;;;;;485876;245;28828;-71
2023/10/12 04:40:33;;;;;;;7.40;4.30;;;14.60;99.90;;;;;;485637;245;29205;-71
2023/10/12 04:42:54;;;;;;;9.50;5.53;;;14.50;99.90;;;;;;485785;245;28819;-73
2023/10/12 04:46:38;;;;;;;7.03;5.10;;;14.60;99.90;;;;;;485950;245;28909;-71
2023/10/12 04:48:31;;;;;;;12.40;5.00;;;14.60;99.90;;;;;;485864;245;28791;-72
2023/10/12 04:51:07;;;;;;;7.10;5.37;;;14.60;99.90;;;;;;485759;245;28843;-71
2023/10/12 04:52:40;;;;;;;7.73;4.60;;;14.60;99.90;;;;;;483829;245;29072;-72
2023/10/12 04:59:17;;;;;;;9.40;6.10;;;14.60;99.90;;;;;;485914;245;29268;-73
2023/10/12 05:01:19;;;;;;;9.47;5.50;;;14.60;99.90;;;;;;485243;245;29270;-72
2023/10/12 05:03:33;;;;;;;6.90;4.80;;;14.60;99.90;;;;;;485855;245;28754;-72
2023/10/12 05:07:40;;;;;;;5.73;4.50;;;14.60;99.90;;;;;;485925;245;28761;-72
2023/10/12 05:09:31;;;;;;;6.00;4.73;;;14.60;99.90;;;;;;485848;240;28761;-73
2023/10/12 05:11:32;;;;;;;6.67;4.50;;;14.60;99.90;;;;;;485937;245;28808;-72
2023/10/12 05:13:33;;;;;;;8.33;5.07;;;14.70;99.90;;;;;;485928;245;28842;-72
2023/10/12 05:15:39;;;;;;;10.23;5.50;;;14.70;99.90;;;;;;485917;245;28783;-72
2023/10/12 05:17:36;;;;;;;9.93;6.20;;;14.70;99.90;;;;;;485690;245;29395;-74
2023/10/12 05:19:37;;;;;;;8.30;5.23;;;14.70;99.90;;;;;;485913;245;29199;-72
2023/10/12 05:21:38;;;;;;;8.30;5.30;;;14.70;99.90;;;;;;485923;245;30520;-72
2023/10/12 05:23:40;;;;;;;9.57;6.27;;;14.70;99.90;;;;;;485891;245;29354;-72
2023/10/12 05:28:38;;;;;;;9.13;5.50;;;14.70;99.90;;;;;;485942;240;29440;-73
2023/10/12 05:30:05;;;;;;;8.00;4.70;;;14.70;99.90;;;;;;482928;245;28894;-72
2023/10/12 05:32:18;;;;;;;6.43;5.10;;;14.80;99.90;;;;;;485873;245;29709;-72
2023/10/12 05:34:52;;;;;;;11.83;6.20;;;14.80;99.90;;;;;;485600;245;28872;-72
2023/10/12 05:36:10;;;;;;;10.33;6.10;;;14.70;99.90;;;;;;482485;245;29290;-72
2023/10/12 05:38:16;;;;;;;15.13;6.63;;;14.80;99.90;;;;;;485910;245;28743;-73
2023/10/12 05:40:14;;;;;;;7.87;5.27;;;14.80;99.90;;;;;;485868;245;28821;-72
2023/10/12 05:42:14;;;;;;;11.13;5.30;;;14.80;99.90;;;;;;485878;245;28854;-72
2023/10/12 05:44:23;;;;;;;8.40;5.20;;;14.90;99.90;;;;;;485925;240;28837;-72
2023/10/12 05:46:20;;;;;;;6.70;4.70;;;14.90;99.90;;;;;;485892;245;28826;-72
2023/10/12 05:48:21;;;;;;;6.40;4.60;;;14.90;99.90;;;;;;485938;245;28867;-72
2023/10/12 05:50:26;;;;;;;8.20;5.30;;;14.90;99.90;;;;;;485951;245;28739;-72
2023/10/12 05:52:26;;;;;;;8.27;4.60;;;14.90;99.90;;;;;;485915;245;29352;-73
2023/10/12 05:54:28;;;;;;;6.73;5.30;;;15.00;99.90;;;;;;485951;245;29238;-72
2023/10/12 05:56:30;;;;;;;9.00;5.27;;;15.00;99.90;;;;;;485913;245;28879;-72
2023/10/12 05:58:32;;;;;;;27.60;7.80;;;15.10;99.90;;;;;;485904;245;28751;-72
2023/10/12 06:02:39;;;;;;;8.97;5.57;;;15.20;99.90;;;;;;476989;249;28930;-73
2023/10/12 06:04:41;;;;;;;10.10;5.30;;;15.10;99.90;;;;;;470605;252;28814;-72
2023/10/12 06:06:44;;;;;;;9.53;5.77;;;15.10;99.90;;;;;;470072;253;29031;-73
2023/10/12 06:08:42;;;;;;;9.47;5.13;;;15.20;99.90;;;;;;476808;249;29630;-72
2023/10/12 06:10:44;;;;;;;12.10;5.80;;;15.30;99.90;;;;;;477025;249;29425;-72
2023/10/12 06:12:46;;;;;;;7.43;5.33;;;15.30;99.90;;;;;;477024;249;29416;-72
2023/10/12 06:14:53;;;;;;;9.70;5.70;;;15.30;99.90;;;;;;476974;249;29467;-72
2023/10/12 06:16:48;;;;;;;9.10;5.73;;;15.40;99.90;;;;;;476615;249;28940;-72
2023/10/12 06:18:54;;;;;;;12.10;5.50;;;15.40;99.90;;;;;;477008;249;29037;-73
2023/10/12 06:20:58;;;;;;;11.93;6.80;;;15.40;99.90;;;;;;476852;249;29448;-72
2023/10/12 06:22:54;;;;;;;7.90;5.40;;;15.40;99.90;;;;;;476673;249;28918;-72
2023/10/12 06:24:55;;;;;;;7.27;5.67;;;15.40;99.90;;;;;;476941;249;28960;-73
2023/10/12 06:26:56;;;;;;;10.23;5.57;;;15.40;99.90;;;;;;477031;245;28897;-72
2023/10/12 06:28:57;;;;;;;11.43;6.20;;;15.30;99.90;;;;;;476965;249;28907;-72
2023/10/12 06:31:00;;;;;;;9.40;6.23;;;15.40;99.90;;;;;;476956;249;29491;-74
2023/10/12 06:33:02;;;;;;;9.67;6.00;;;15.30;99.90;;;;;;476943;249;29091;-73
2023/10/12 06:37:30;;;;;;;8.93;5.07;;;15.40;99.90;;;;;;476999;249;29013;-72
2023/10/12 06:41:58;;;;;;;6.20;4.90;;;15.40;99.90;;;;;;484658;245;28811;-73
2023/10/12 06:45:28;;;;;;;8.93;5.73;;;15.40;99.90;;;;;;485929;245;28854;-72
2023/10/12 06:47:41;;;;;;;7.47;5.13;;;15.50;99.90;;;;;;485992;245;28772;-74
2023/10/12 06:49:32;;;;;;;8.90;5.80;;;15.50;99.90;;;;;;485837;245;28839;-72
2023/10/12 06:51:32;;;;;;;7.80;5.10;;;15.60;99.90;;;;;;485927;245;28777;-73
2023/10/12 06:53:35;;;;;;;8.03;5.30;;;15.60;99.90;;;;;;485959;245;28728;-72
2023/10/12 06:55:39;;;;;;;10.40;5.67;;;15.60;99.90;;;;;;485955;245;29300;-72
2023/10/12 06:57:44;;;;;;;11.20;5.90;;;15.60;99.90;;;;;;485915;245;29277;-72
2023/10/12 07:02:10;;;;;;;7.83;5.53;;;15.70;99.90;;;;;;486000;245;28788;-73
2023/10/12 07:04:15;;;;;;;8.90;6.53;;;15.80;99.90;;;;;;485956;245;28793;-73
2023/10/12 07:06:16;;;;;;;12.20;6.50;;;15.80;99.90;;;;;;485937;245;28787;-73
2023/10/12 07:08:17;;;;;;;11.43;6.27;;;15.80;99.90;;;;;;485942;245;28951;-72
2023/10/12 07:10:28;;;;;;;8.77;6.07;;;15.90;99.90;;;;;;485916;245;28813;-72
2023/10/12 07:12:26;;;;;;;8.80;5.80;;;15.90;99.90;;;;;;485738;245;29253;-73
2023/10/12 07:14:33;;;;;;;8.50;6.00;;;15.90;99.90;;;;;;485902;245;28839;-72
2023/10/12 07:16:31;;;;;;;11.43;6.70;;;15.90;99.90;;;;;;485878;245;28847;-72
2023/10/12 07:18:29;;;;;;;10.27;6.10;;;15.90;99.90;;;;;;485890;245;28885;-72
2023/10/12 07:22:36;;;;;;;15.10;7.40;;;16.00;99.90;;;;;;485943;245;28779;-72
2023/10/12 07:24:38;;;;;;;11.13;5.90;;;16.00;99.90;;;;;;485887;245;28893;-72
2023/10/12 07:26:39;;;;;;;8.17;6.23;;;16.00;99.90;;;;;;485897;245;28834;-73
2023/10/12 07:28:41;;;;;;;15.83;6.83;;;16.00;99.90;;;;;;485858;245;28800;-73
2023/10/12 07:32:56;;;;;;;9.73;6.20;;;16.00;99.90;;;;;;479945;245;28832;-72
2023/10/12 07:35:05;;;;;;;9.20;6.13;;;16.00;99.90;;;;;;486923;244;29399;-72
2023/10/12 07:36:58;;;;;;;9.60;6.37;;;16.10;99.90;;;;;;486856;244;29464;-72
2023/10/12 07:39:14;;;;;;;8.20;6.40;;;16.10;99.90;;;;;;485935;245;28737;-72
2023/10/12 07:41:01;;;;;;;12.30;6.57;;;16.10;99.90;;;;;;485790;245;28767;-72
2023/10/12 07:43:06;;;;;;;8.03;6.17;;;16.20;99.90;;;;;;485717;245;28790;-73
2023/10/12 07:45:06;;;;;;;23.47;7.40;;;16.20;99.90;;;;;;485873;245;28786;-73
2023/10/12 07:47:19;;;;;;;13.80;6.67;;;16.20;99.90;;;;;;485912;245;28817;-72
2023/10/12 07:49:40;;;;;;;11.47;6.73;;;16.20;99.90;;;;;;485925;245;28862;-73
2023/10/12 07:51:54;;;;;;;9.27;6.40;;;16.30;99.90;;;;;;485838;245;28783;-74
2023/10/12 07:53:41;;;;;;;12.30;7.40;;;16.40;99.90;;;;;;485767;245;28850;-72
2023/10/12 07:55:43;;;;;;;15.90;7.03;;;16.40;99.90;;;;;;485947;245;28870;-72
2023/10/12 07:57:44;;;;;;;10.37;6.70;;;16.50;99.90;;;;;;485791;245;28863;-72
2023/10/12 08:02:08;;;;;;;8.60;6.30;;;16.60;99.90;;;;;;485936;245;28832;-72
2023/10/12 08:04:00;;;;;;;10.10;6.07;;;16.60;99.90;;;;;;485880;245;28749;-72
2023/10/12 08:06:15;;;;;;;9.90;7.03;;;16.70;99.90;;;;;;485892;240;28781;-72
2023/10/12 08:10:08;;;;;;;12.70;6.77;;;16.80;99.90;;;;;;485926;245;28798;-72
2023/10/12 08:12:24;;;;;;;19.50;9.00;;;16.80;99.90;;;;;;485869;245;28989;-73
2023/10/12 08:14:19;;;;;;;20.00;8.10;;;16.80;99.90;;;;;;485637;245;28736;-72
2023/10/12 08:16:15;;;;;;;15.13;6.77;;;16.90;99.90;;;;;;485837;245;29339;-73
2023/10/12 08:19:08;;;;;;;11.70;7.07;;;16.90;99.90;;;;;;485888;245;28882;-73
2023/10/12 08:22:36;;;;;;;9.63;7.23;;;17.00;99.90;;;;;;485927;244;29417;-72
2023/10/12 08:24:37;;;;;;;13.27;7.60;;;17.10;99.90;;;;;;485909;245;28969;-73
2023/10/12 08:28:55;;;;;;;12.13;7.23;;;17.20;99.90;;;;;;485922;245;28753;-74
2023/10/12 08:31:00;;;;;;;11.80;7.73;;;17.30;99.90;;;;;;485802;245;28747;-72
2023/10/12 08:32:59;;;;;;;10.00;7.30;;;17.40;99.90;;;;;;485818;245;28817;-73
2023/10/12 08:39:10;;;;;;;12.37;7.87;;;17.50;99.90;;;;;;485892;245;28800;-72
2023/10/12 08:43:45;;;;;;;15.07;7.47;;;17.60;99.90;;;;;;485904;245;29315;-72
2023/10/12 08:45:44;;;;;;;13.07;7.90;;;17.60;99.90;;;;;;485753;245;28751;-72
2023/10/12 08:47:48;;;;;;;11.47;7.60;;;17.70;99.90;;;;;;485904;245;28786;-74
2023/10/12 08:50:05;;;;;;;9.97;7.80;;;17.70;99.90;;;;;;485880;245;28750;-72
2023/10/12 08:52:21;;;;;;;16.73;7.87;;;17.70;99.90;;;;;;485853;245;29293;-73
2023/10/12 08:54:07;;;;;;;11.90;7.97;;;17.80;99.90;;;;;;484734;245;28799;-76
2023/10/12 08:56:08;;;;;;;13.10;7.77;;;17.70;99.90;;;;;;485900;245;28842;-74
2023/10/12 08:58:12;;;;;;;20.77;8.60;;;17.70;99.90;;;;;;485909;245;29351;-73
2023/10/12 09:00:23;;;;;;;12.13;8.03;;;17.60;99.90;;;;;;485910;245;28801;-72
2023/10/12 09:02:21;;;;;;;12.37;7.83;;;17.60;99.90;;;;;;485874;245;28755;-72
2023/10/12 09:04:29;;;;;;;16.90;8.47;;;17.70;99.90;;;;;;485921;245;29234;-74
2023/10/12 09:06:52;;;;;;;17.13;9.50;;;17.70;99.90;;;;;;485843;245;29279;-75
2023/10/12 09:10:48;;;;;;;14.27;9.07;;;17.80;99.90;;;;;;485389;245;29869;-75
2023/10/12 09:12:40;;;;;;;14.93;8.67;;;17.80;99.90;;;;;;485728;240;29355;-74
2023/10/12 09:14:43;;;;;;;15.80;8.10;;;17.80;99.90;;;;;;485877;245;29302;-74
2023/10/12 09:16:43;;;;;;;10.60;7.57;;;17.90;99.90;;;;;;485855;245;28844;-74
2023/10/12 09:18:50;;;;;;;11.23;7.43;;;17.90;99.90;;;;;;485868;245;28754;-74
2023/10/12 09:21:17;;;;;;;14.70;8.97;;;18.00;99.90;;;;;;485761;245;28774;-74
2023/10/12 09:23:11;;;;;;;13.60;8.23;;;18.00;99.90;;;;;;485571;245;28802;-74
2023/10/12 09:25:04;;;;;;;8.43;6.83;;;18.00;99.90;;;;;;485817;245;29328;-74
2023/10/12 09:27:11;;;;;;;13.50;7.30;;;18.00;99.90;;;;;;485883;245;29195;-74
2023/10/12 09:29:12;;;;;;;10.50;7.77;;;18.00;99.90;;;;;;485822;245;29303;-75
2023/10/12 09:31:13;;;;;;;13.10;8.23;;;18.00;99.90;;;;;;485838;245;28755;-74
2023/10/12 09:33:44;;;;;;;11.43;7.53;;;18.00;99.90;;;;;;485827;245;29357;-72
2023/10/12 09:37:21;;;;;;;20.17;8.37;;;18.00;99.90;;;;;;463914;255;29089;-74
2023/10/12 09:39:27;;;;;;;10.80;7.67;;;18.00;99.90;;;;;;463877;255;28924;-74
2023/10/12 09:41:26;;;;;;;21.20;8.97;;;18.10;99.90;;;;;;463868;255;29434;-74
2023/10/12 09:43:30;;;;;;;12.03;7.70;;;18.10;99.90;;;;;;458181;258;29442;-75
2023/10/12 09:45:34;;;;;;;14.97;7.47;;;18.10;99.90;;;;;;458164;258;28935;-74
2023/10/12 09:47:44;;;;;;;9.47;6.57;;;18.10;99.90;;;;;;458146;258;29405;-74
2023/10/12 09:49:43;;;;;;;10.97;8.30;;;18.20;99.90;;;;;;458328;258;28933;-73
2023/10/12 09:51:38;;;;;;;9.17;7.20;;;18.10;99.90;;;;;;458294;258;28961;-74
2023/10/12 09:53:40;;;;;;;15.67;7.73;;;18.10;99.90;;;;;;458162;259;29306;-73
2023/10/12 09:55:45;;;;;;;13.50;7.43;;;18.00;99.90;;;;;;458172;259;29146;-74
2023/10/12 09:57:50;;;;;;;11.73;7.50;;;18.00;99.90;;;;;;458217;258;28971;-73
2023/10/12 09:59:51;;;;;;;11.77;7.20;;;18.00;99.90;;;;;;458300;258;29030;-73
2023/10/12 10:01:51;;;;;;;11.73;6.40;;;18.00;99.90;;;;;;458276;258;29443;-75
2023/10/12 10:03:52;;;;;;;14.03;8.00;;;18.00;99.90;;;;;;458169;259;28973;-74
2023/10/12 10:06:04;;;;;;;10.00;7.17;;;18.10;99.90;;;;;;458097;258;29505;-74
2023/10/12 10:07:55;;;;;;;10.60;6.90;;;18.10;99.90;;;;;;458149;257;29426;-74
2023/10/12 10:09:56;;;;;;;13.00;7.53;;;18.20;99.90;;;;;;458173;259;29490;-74
2023/10/12 10:12:00;;;;;;;12.00;7.40;;;18.20;99.90;;;;;;458167;259;29008;-74
2023/10/12 10:14:03;;;;;;;16.63;8.00;;;18.20;99.90;;;;;;458158;259;29465;-72
2023/10/12 10:16:08;;;;;;;13.77;7.47;;;18.20;99.90;;;;;;458144;259;29437;-74
2023/10/12 10:18:04;;;;;;;11.90;7.70;;;18.10;99.90;;;;;;458232;258;28927;-73
2023/10/12 10:20:19;;;;;;;14.00;8.03;;;18.10;99.90;;;;;;458118;259;28964;-74
2023/10/12 10:22:08;;;;;;;9.67;6.27;;;18.00;99.90;;;;;;458479;258;28976;-73
2023/10/12 10:24:12;;;;;;;12.13;7.50;;;18.20;99.90;;;;;;458182;259;29012;-74
2023/10/12 10:28:19;;;;;;;14.63;7.80;;;18.20;99.90;;;;;;459529;257;28951;-74
2023/10/12 10:30:28;;;;;;;11.90;7.57;;;18.10;99.90;;;;;;455991;260;28896;-75
2023/10/12 10:32:29;;;;;;;14.23;7.07;;;18.00;99.90;;;;;;456001;255;28990;-73
2023/10/12 10:34:34;;;;;;;14.00;7.60;;;18.00;99.90;;;;;;455987;259;28893;-73
2023/10/12 10:36:34;;;;;;;12.57;7.60;;;17.90;99.90;;;;;;455611;259;28923;-73
2023/10/12 10:38:34;;;;;;;11.87;7.10;;;17.80;99.90;;;;;;455912;260;28916;-73
2023/10/12 10:40:49;;;;;;;10.80;6.93;;;17.90;99.90;;;;;;455879;259;28912;-72
2023/10/12 10:43:19;;;;;;;11.13;7.27;;;17.90;99.90;;;;;;456003;259;29424;-72
2023/10/12 10:44:54;;;;;;;10.50;6.30;;;17.90;99.90;;;;;;454072;261;29005;-72
2023/10/12 10:47:07;;;;;;;13.73;7.10;;;17.90;99.90;;;;;;455933;259;28860;-72
2023/10/12 10:49:09;;;;;;;11.70;6.90;;;17.80;99.90;;;;;;455988;259;28870;-74
2023/10/12 10:51:18;;;;;;;9.00;6.43;;;17.90;99.90;;;;;;455989;259;28985;-72
2023/10/12 10:53:10;;;;;;;8.13;6.33;;;17.90;99.90;;;;;;455786;259;28960;-73
2023/10/12 10:55:12;;;;;;;8.50;6.20;;;17.90;99.90;;;;;;455974;260;29078;-72
2023/10/12 10:57:31;;;;;;;10.47;6.83;;;17.80;99.90;;;;;;455988;259;28910;-73
2023/10/12 10:59:23;;;;;;;12.57;6.57;;;17.80;99.90;;;;;;455745;260;28908;-72
2023/10/12 11:01:26;;;;;;;9.10;6.37;;;17.80;99.90;;;;;;455990;259;28944;-72
2023/10/12 11:03:26;;;;;;;11.47;7.50;;;17.70;99.90;;;;;;455983;259;28930;-72
2023/10/12 11:05:28;;;;;;;9.33;6.83;;;17.70;99.90;;;;;;455992;259;28975;-74
2023/10/12 11:07:28;;;;;;;10.47;7.30;;;17.70;99.90;;;;;;455987;259;28855;-72
2023/10/12 11:09:49;;;;;;;9.90;6.03;;;17.70;99.90;;;;;;455996;259;29460;-72
2023/10/12 11:11:44;;;;;;;8.30;6.23;;;17.70;99.90;;;;;;456067;259;29503;-72
2023/10/12 11:13:40;;;;;;;11.27;6.63;;;17.70;99.90;;;;;;456035;259;28935;-74
2023/10/12 11:15:42;;;;;;;17.03;7.20;;;17.70;99.90;;;;;;455973;259;28923;-72
2023/10/12 11:17:56;;;;;;;16.50;7.80;;;17.70;99.90;;;;;;456006;259;29260;-75
2023/10/12 11:19:44;;;;;;;11.57;6.37;;;17.70;99.90;;;;;;455864;260;28869;-72
2023/10/12 11:21:57;;;;;;;10.33;6.80;;;17.70;99.90;;;;;;455980;255;29376;-72
2023/10/12 11:23:56;;;;;;;11.40;6.70;;;17.70;99.90;;;;;;455958;259;29423;-71
2023/10/12 11:25:57;;;;;;;7.77;6.47;;;17.80;99.90;;;;;;455988;259;29486;-72
2023/10/12 11:27:58;;;;;;;10.17;6.23;;;17.80;99.90;;;;;;455982;259;28859;-72
2023/10/12 11:30:18;;;;;;;9.73;6.90;;;17.80;99.90;;;;;;455956;260;28927;-74
2023/10/12 11:32:10;;;;;;;9.93;6.43;;;17.80;99.90;;;;;;455753;260;28897;-73
2023/10/12 11:34:12;;;;;;;10.33;7.00;;;17.80;99.90;;;;;;455944;260;29002;-74
2023/10/12 11:36:12;;;;;;;11.50;7.00;;;17.80;99.90;;;;;;455913;259;28896;-73
2023/10/12 11:38:15;;;;;;;8.70;6.80;;;17.80;99.90;;;;;;455928;259;28903;-73
2023/10/12 11:40:15;;;;;;;15.23;7.60;;;17.70;99.90;;;;;;455945;259;28950;-73
2023/10/12 11:42:17;;;;;;;9.73;6.70;;;17.70;99.90;;;;;;455966;260;28871;-74